createdAt,value
2024-05-09T00:00:22.437Z,96392.22
2024-05-09T00:01:34.983Z,96394.22
2024-05-09T00:02:37.275Z,96388.69
2024-05-09T00:03:46.969Z,96394.22
2024-05-09T00:04:49.245Z,96390.69
2024-05-09T00:05:54.150Z,96390.69
2024-05-09T00:06:56.383Z,96385.19
2024-05-09T00:08:01.385Z,96390.69
2024-05-09T00:09:05.817Z,96385.94
2024-05-09T00:10:18.261Z,96393.44
2024-05-09T00:11:27.672Z,96380.44
2024-05-09T00:12:35.111Z,96383.97
2024-05-09T00:13:37.260Z,96379.66
2024-05-09T00:14:44.229Z,96380.88
2024-05-09T00:15:46.403Z,96380.44
2024-05-09T00:16:51.408Z,96373.38
2024-05-09T00:17:53.675Z,96378.91
2024-05-09T00:18:58.593Z,96382.41
2024-05-09T00:20:06.919Z,96379.66
2024-05-09T00:21:16.233Z,96382.41
2024-05-09T00:22:18.612Z,96380.88
2024-05-09T00:23:23.489Z,96378.13
2024-05-09T00:24:25.768Z,96369.06
2024-05-09T00:25:32.689Z,96375.38
2024-05-09T00:26:35.062Z,96376.56
2024-05-09T00:27:42.714Z,96373.81
2024-05-09T00:28:46.979Z,96373.81
2024-05-09T00:29:51.907Z,96373.06
2024-05-09T00:30:56.220Z,96376.56
2024-05-09T00:32:01.144Z,96368.31
2024-05-09T00:33:04.259Z,96364.00
2024-05-09T00:34:09.997Z,96377.78
2024-05-09T00:35:12.471Z,96370.72
2024-05-09T00:36:19.529Z,96369.19
2024-05-09T00:37:22.057Z,96369.19
2024-05-09T00:38:26.927Z,96369.19
2024-05-09T00:39:29.198Z,96371.94
2024-05-09T00:40:40.851Z,96372.72
2024-05-09T00:41:47.041Z,96370.72
2024-05-09T00:42:54.470Z,96370.72
2024-05-09T00:43:56.726Z,96365.22
2024-05-09T00:45:01.577Z,96359.69
2024-05-09T00:46:04.476Z,96361.69
2024-05-09T00:47:11.794Z,96358.16
2024-05-09T00:48:19.729Z,96365.22
2024-05-09T00:49:28.096Z,96359.69
2024-05-09T00:50:36.408Z,96361.69
2024-05-09T00:51:44.799Z,96360.47
2024-05-09T00:52:49.910Z,96361.25
2024-05-09T00:53:54.748Z,96365.22
2024-05-09T00:54:57.234Z,96364.00
2024-05-09T00:56:02.694Z,96364.78
2024-05-09T00:57:07.052Z,96361.25
2024-05-09T00:58:20.964Z,96361.25
2024-05-09T00:59:26.890Z,96360.91
2024-05-09T01:00:38.809Z,96355.41
2024-05-09T01:01:44.365Z,96355.41
2024-05-09T01:02:49.366Z,96360.91
2024-05-09T01:05:09.277Z,96364.44
2024-05-09T01:06:15.153Z,96358.16
2024-05-09T01:07:17.374Z,96363.69
2024-05-09T01:08:22.279Z,96359.34
2024-05-09T01:09:26.567Z,96355.06
2024-05-09T01:10:34.813Z,96353.84
2024-05-09T01:11:39.253Z,96353.84
2024-05-09T01:12:44.216Z,96356.59
2024-05-09T01:13:49.038Z,96358.59
2024-05-09T01:14:55.910Z,96362.13
2024-05-09T01:15:58.606Z,96356.59
2024-05-09T01:17:03.979Z,96362.91
2024-05-09T01:18:10.477Z,96355.84
2024-05-09T01:20:39.556Z,96355.06
2024-05-09T01:21:50.090Z,96359.81
2024-05-09T01:22:52.806Z,96359.03
2024-05-09T01:24:00.197Z,96359.03
2024-05-09T01:25:02.429Z,96359.03
2024-05-09T01:26:05.067Z,96359.03
2024-05-09T01:27:11.871Z,96362.56
2024-05-09T01:28:15.256Z,96361.78
2024-05-09T01:29:22.641Z,96359.03
2024-05-09T01:30:31.874Z,96359.03
2024-05-09T01:31:40.205Z,96364.53
2024-05-09T01:32:44.738Z,96364.53
2024-05-09T01:33:49.961Z,96364.53
2024-05-09T01:34:52.315Z,96359.81
2024-05-09T01:35:57.246Z,96358.25
2024-05-09T01:36:59.424Z,96367.28
2024-05-09T01:38:06.795Z,96361.78
2024-05-09T01:39:11.881Z,96361.00
2024-05-09T01:40:22.012Z,96361.00
2024-05-09T01:41:27.273Z,96367.63
2024-05-09T01:42:32.298Z,96366.09
2024-05-09T01:43:36.643Z,96364.53
2024-05-09T01:44:43.419Z,96366.09
2024-05-09T01:45:45.807Z,96364.53
2024-05-09T01:46:50.744Z,96365.75
2024-05-09T01:47:53.303Z,96363.00
2024-05-09T01:49:00.835Z,96363.00
2024-05-09T01:50:06.635Z,96367.75
2024-05-09T01:51:13.762Z,96367.28
2024-05-09T01:52:16.815Z,96363.00
2024-05-09T01:53:21.868Z,96368.50
2024-05-09T01:54:28.961Z,96365.75
2024-05-09T01:55:33.969Z,96362.22
2024-05-09T01:56:36.212Z,96358.72
2024-05-09T01:57:41.440Z,96361.47
2024-05-09T01:58:43.855Z,96365.75
2024-05-09T01:59:50.861Z,96363.00
2024-05-09T02:00:53.762Z,96360.25
2024-05-09T02:01:58.751Z,96364.22
2024-05-09T02:03:01.445Z,96364.22
2024-05-09T02:04:06.976Z,96360.66
2024-05-09T02:05:12.315Z,96361.47
2024-05-09T02:06:17.816Z,96355.94
2024-05-09T02:07:20.179Z,96358.72
2024-05-09T02:08:25.192Z,96364.22
2024-05-09T02:09:30.174Z,96366.19
2024-05-09T02:10:37.154Z,96363.88
2024-05-09T02:11:44.338Z,96364.22
2024-05-09T02:12:49.448Z,96361.13
2024-05-09T02:13:51.897Z,96364.66
2024-05-09T02:14:56.880Z,96369.41
2024-05-09T02:16:01.336Z,96362.31
2024-05-09T02:17:07.474Z,96372.16
2024-05-09T02:18:11.083Z,96362.66
2024-05-09T02:19:16.552Z,96363.88
2024-05-09T02:20:44.455Z,96364.66
2024-05-09T02:21:54.809Z,96358.38
2024-05-09T02:22:57.523Z,96365.41
2024-05-09T02:24:02.602Z,96365.41
2024-05-09T02:25:07.686Z,96363.88
2024-05-09T02:26:09.886Z,96365.41
2024-05-09T02:27:17.252Z,96365.41
2024-05-09T02:28:21.297Z,96357.91
2024-05-09T02:29:26.167Z,96357.16
2024-05-09T02:31:36.146Z,96358.38
2024-05-09T02:32:40.776Z,96358.38
2024-05-09T02:33:46.044Z,96355.63
2024-05-09T02:34:48.355Z,96359.13
2024-05-09T02:35:50.700Z,96359.91
2024-05-09T02:36:56.440Z,96359.13
2024-05-09T02:38:00.959Z,96359.13
2024-05-09T02:39:03.139Z,96359.13
2024-05-09T02:40:11.623Z,96361.13
2024-05-09T02:41:19.260Z,96364.66
2024-05-09T02:42:21.462Z,96360.34
2024-05-09T02:43:25.673Z,96358.38
2024-05-09T02:44:28.059Z,96358.38
2024-05-09T02:45:33.119Z,96358.38
2024-05-09T02:46:35.503Z,96367.41
2024-05-09T02:47:37.914Z,96361.91
2024-05-09T02:48:42.592Z,96358.38
2024-05-09T02:49:47.508Z,96358.38
2024-05-09T02:50:49.725Z,96363.09
2024-05-09T02:51:51.914Z,96365.41
2024-05-09T02:52:56.735Z,96359.13
2024-05-09T02:54:00.991Z,96354.06
2024-05-09T02:55:03.182Z,96353.63
2024-05-09T02:56:08.268Z,96358.38
2024-05-09T02:57:13.063Z,96352.84
2024-05-09T02:58:15.216Z,96356.03
2024-05-09T02:59:19.431Z,96352.06
2024-05-09T03:00:26.745Z,96355.63
2024-05-09T03:01:39.756Z,96356.81
2024-05-09T03:02:43.411Z,96347.69
2024-05-09T03:03:48.433Z,96354.38
2024-05-09T03:04:52.934Z,96350.44
2024-05-09T03:05:57.750Z,96353.19
2024-05-09T03:06:59.954Z,96355.16
2024-05-09T03:08:02.198Z,96360.66
2024-05-09T03:09:04.903Z,96355.94
2024-05-09T03:10:18.585Z,96359.91
2024-05-09T03:11:30.155Z,96359.91
2024-05-09T03:12:32.390Z,96358.38
2024-05-09T03:13:34.572Z,96359.91
2024-05-09T03:14:39.429Z,96357.56
2024-05-09T03:15:43.867Z,96358.38
2024-05-09T03:16:46.137Z,96360.66
2024-05-09T03:17:48.439Z,96363.88
2024-05-09T03:18:54.758Z,96359.91
2024-05-09T03:19:59.003Z,96361.13
2024-05-09T03:21:03.512Z,96356.81
2024-05-09T03:22:08.412Z,96362.31
2024-05-09T03:23:10.656Z,96356.81
2024-05-09T03:24:13.337Z,96363.09
2024-05-09T03:25:15.519Z,96357.56
2024-05-09T03:26:22.327Z,96362.31
2024-05-09T03:27:27.195Z,96358.38
2024-05-09T03:28:29.307Z,96362.31
2024-05-09T03:29:31.548Z,96356.81
2024-05-09T03:30:41.409Z,96358.38
2024-05-09T03:31:47.428Z,96349.31
2024-05-09T03:32:49.770Z,96354.06
2024-05-09T03:33:52.259Z,96353.28
2024-05-09T03:34:57.086Z,96350.53
2024-05-09T03:35:59.355Z,96360.78
2024-05-09T03:37:06.692Z,96357.25
2024-05-09T03:38:09.139Z,96351.28
2024-05-09T03:39:12.119Z,96357.56
2024-05-09T03:40:23.428Z,96353.28
2024-05-09T03:41:28.555Z,96345.78
2024-05-09T03:42:41.625Z,96345.78
2024-05-09T03:43:44.361Z,96355.28
2024-05-09T03:44:46.428Z,96354.50
2024-05-09T03:45:52.287Z,96352.53
2024-05-09T03:46:54.454Z,96347.00
2024-05-09T03:47:59.076Z,96355.28
2024-05-09T03:49:01.472Z,96351.28
2024-05-09T03:50:14.981Z,96355.28
2024-05-09T03:51:20.149Z,96351.75
2024-05-09T03:52:22.326Z,96354.50
2024-05-09T03:53:29.153Z,96357.25
2024-05-09T03:54:31.662Z,96356.47
2024-05-09T03:55:33.839Z,96353.72
2024-05-09T03:56:36.305Z,96356.47
2024-05-09T03:57:43.764Z,96352.19
2024-05-09T03:58:47.984Z,96363.22
2024-05-09T03:59:50.202Z,96354.94
2024-05-09T04:00:52.474Z,96352.94
2024-05-09T04:01:57.761Z,96367.50
2024-05-09T04:03:00.774Z,96360.44
2024-05-09T04:04:05.373Z,96361.22
2024-05-09T04:05:07.568Z,96356.47
2024-05-09T04:06:12.618Z,96361.97
2024-05-09T04:07:15.181Z,96361.97
2024-05-09T04:08:17.333Z,96363.22
2024-05-09T04:09:21.523Z,96361.66
2024-05-09T04:10:32.423Z,96367.94
2024-05-09T04:11:36.352Z,96362.44
2024-05-09T04:12:41.175Z,96368.72
2024-05-09T04:13:43.754Z,96367.94
2024-05-09T04:14:50.646Z,96364.41
2024-05-09T04:15:52.927Z,96363.22
2024-05-09T04:16:55.188Z,96365.19
2024-05-09T04:17:57.628Z,96356.13
2024-05-09T04:19:02.628Z,96356.94
2024-05-09T04:20:10.492Z,96366.72
2024-05-09T04:21:13.030Z,96363.97
2024-05-09T04:22:18.107Z,96358.88
2024-05-09T04:23:20.346Z,96369.91
2024-05-09T04:24:22.994Z,96367.16
2024-05-09T04:25:30.232Z,96367.94
2024-05-09T04:26:32.546Z,96372.66
2024-05-09T04:27:34.895Z,96371.91
2024-05-09T04:28:42.377Z,96371.91
2024-05-09T04:29:44.710Z,96379.41
2024-05-09T04:30:49.030Z,96375.44
2024-05-09T04:31:53.970Z,96375.44
2024-05-09T04:32:56.300Z,96378.19
2024-05-09T04:33:58.674Z,96378.19
2024-05-09T04:35:01.164Z,96383.69
2024-05-09T04:36:10.389Z,96389.66
2024-05-09T04:37:12.830Z,96384.16
2024-05-09T04:38:16.091Z,96386.91
2024-05-09T04:39:18.525Z,96388.91
2024-05-09T04:40:30.791Z,96382.16
2024-05-09T04:41:38.620Z,96393.19
2024-05-09T04:42:40.924Z,96384.91
2024-05-09T04:43:46.326Z,96383.69
2024-05-09T04:44:52.980Z,96391.97
2024-05-09T04:45:56.297Z,96389.19
2024-05-09T04:47:00.497Z,96387.66
2024-05-09T04:48:03.169Z,96387.66
2024-05-09T04:49:08.740Z,96386.44
2024-05-09T04:50:14.543Z,96394.72
2024-05-09T04:51:19.668Z,96389.19
2024-05-09T04:52:23.857Z,96388.78
2024-05-09T04:53:28.681Z,96385.25
2024-05-09T04:54:36.136Z,96394.72
2024-05-09T04:55:40.042Z,96389.19
2024-05-09T04:56:42.702Z,96389.19
2024-05-09T04:57:49.704Z,96383.69
2024-05-09T04:58:54.470Z,96388.44
2024-05-09T04:59:58.010Z,96396.72
2024-05-09T05:01:01.051Z,96397.47
2024-05-09T05:02:05.934Z,96398.69
2024-05-09T05:03:14.264Z,96393.19
2024-05-09T05:04:18.312Z,96394.41
2024-05-09T05:05:20.607Z,96397.94
2024-05-09T05:06:22.720Z,96391.66
2024-05-09T05:07:27.559Z,96395.94
2024-05-09T05:08:32.041Z,96391.66
2024-05-09T05:09:35.346Z,96395.94
2024-05-09T05:10:37.519Z,96392.41
2024-05-09T05:11:42.389Z,96391.66
2024-05-09T05:13:03.169Z,96395.94
2024-05-09T05:14:11.735Z,96395.94
2024-05-09T05:15:14.143Z,96397.16
2024-05-09T05:16:19.193Z,96397.94
2024-05-09T05:17:21.571Z,96393.19
2024-05-09T05:18:24.512Z,96394.84
2024-05-09T05:19:29.099Z,96398.34
2024-05-09T05:20:34.480Z,96397.16
2024-05-09T05:21:36.792Z,96395.59
2024-05-09T05:22:40.631Z,96399.91
2024-05-09T05:23:45.567Z,96402.69
2024-05-09T05:24:49.836Z,96397.16
2024-05-09T05:25:53.598Z,96399.91
2024-05-09T05:26:56.218Z,96396.38
2024-05-09T05:28:00.968Z,96393.19
2024-05-09T05:29:03.266Z,96402.97
2024-05-09T05:30:17.560Z,96398.69
2024-05-09T05:31:23.436Z,96397.16
2024-05-09T05:32:28.458Z,96404.22
2024-05-09T05:33:30.995Z,96398.69
2024-05-09T05:34:33.548Z,96404.22
2024-05-09T05:35:37.793Z,96405.44
2024-05-09T05:36:42.573Z,96412.91
2024-05-09T05:37:44.812Z,96406.63
2024-05-09T05:38:47.066Z,96411.72
2024-05-09T05:39:49.321Z,96408.19
2024-05-09T05:40:56.362Z,96407.38
2024-05-09T05:41:58.635Z,96406.75
2024-05-09T05:43:00.838Z,96404.28
2024-05-09T05:44:03.109Z,96412.56
2024-05-09T05:45:09.898Z,96408.63
2024-05-09T05:46:16.900Z,96418.88
2024-05-09T05:47:19.651Z,96412.91
2024-05-09T05:48:24.852Z,96419.22
2024-05-09T05:49:27.340Z,96411.25
2024-05-09T05:50:35.695Z,96409.72
2024-05-09T05:51:44.600Z,96416.00
2024-05-09T05:52:46.842Z,96421.09
2024-05-09T05:53:49.361Z,96422.63
2024-05-09T05:54:54.399Z,96416.47
2024-05-09T05:55:56.668Z,96420.75
2024-05-09T05:57:00.996Z,96411.25
2024-05-09T05:58:03.688Z,96418.31
2024-05-09T05:59:08.526Z,96418.31
2024-05-09T06:00:17.978Z,96415.56
2024-05-09T06:01:26.505Z,96418.66
2024-05-09T06:02:31.062Z,96415.91
2024-05-09T06:03:35.968Z,96418.66
2024-05-09T06:04:38.199Z,96421.50
2024-05-09T06:05:41.110Z,96423.06
2024-05-09T06:06:43.387Z,96417.56
2024-05-09T06:07:50.294Z,96410.81
2024-05-09T06:08:52.660Z,96412.81
2024-05-09T06:09:54.808Z,96420.66
2024-05-09T06:10:57.170Z,96415.16
2024-05-09T06:12:02.143Z,96404.88
2024-05-09T06:13:06.612Z,96409.19
2024-05-09T06:14:09.448Z,96413.50
2024-05-09T06:15:11.697Z,96417.38
2024-05-09T06:16:16.412Z,96410.28
2024-05-09T06:17:21.345Z,96412.38
2024-05-09T06:18:26.020Z,96418.22
2024-05-09T06:19:28.625Z,96407.19
2024-05-09T06:20:36.583Z,96411.94
2024-05-09T06:21:40.508Z,96405.22
2024-05-09T06:22:42.637Z,96415.03
2024-05-09T06:23:47.707Z,96413.84
2024-05-09T06:24:52.618Z,96401.59
2024-05-09T06:25:54.879Z,96412.94
2024-05-09T06:26:57.053Z,96405.78
2024-05-09T06:28:01.042Z,96414.41
2024-05-09T06:29:07.943Z,96408.47
2024-05-09T06:30:21.094Z,96405.25
2024-05-09T06:31:28.304Z,96412.19
2024-05-09T06:32:35.790Z,96418.41
2024-05-09T06:33:38.140Z,96412.78
2024-05-09T06:34:43.217Z,96410.25
2024-05-09T06:35:48.706Z,96414.13
2024-05-09T06:36:51.538Z,96407.41
2024-05-09T06:37:53.718Z,96413.22
2024-05-09T06:38:55.852Z,96407.22
2024-05-09T06:40:03.157Z,96405.91
2024-05-09T06:41:07.811Z,96406.09
2024-05-09T06:42:10.021Z,96407.66
2024-05-09T06:43:12.744Z,96408.78
2024-05-09T06:44:17.659Z,96406.34
2024-05-09T06:45:22.327Z,96409.09
2024-05-09T06:46:25.451Z,96407.88
2024-05-09T06:47:27.936Z,96407.88
2024-05-09T06:48:35.803Z,96407.00
2024-05-09T06:49:38.158Z,96407.31
2024-05-09T06:50:42.468Z,96414.75
2024-05-09T06:51:44.789Z,96415.06
2024-05-09T06:52:49.791Z,96409.09
2024-05-09T06:53:52.353Z,96409.22
2024-05-09T06:54:54.481Z,96413.75
2024-05-09T06:55:59.717Z,96417.94
2024-05-09T06:57:04.535Z,96417.94
2024-05-09T06:58:07.340Z,96417.63
2024-05-09T06:59:09.573Z,96430.19
2024-05-09T07:00:15.677Z,96418.72
2024-05-09T07:01:29.268Z,96421.69
2024-05-09T07:02:32.104Z,96417.94
2024-05-09T07:03:37.026Z,96421.47
2024-05-09T07:04:41.852Z,96418.59
2024-05-09T07:05:48.481Z,96417.25
2024-05-09T07:06:53.674Z,96410.41
2024-05-09T07:07:55.939Z,96418.94
2024-05-09T07:09:00.780Z,96409.88
2024-05-09T07:10:03.934Z,96413.50
2024-05-09T07:11:06.175Z,96416.59
2024-05-09T07:12:13.222Z,96410.28
2024-05-09T07:13:15.871Z,96410.50
2024-05-09T07:14:18.295Z,96416.25
2024-05-09T07:15:23.095Z,96414.47
2024-05-09T07:16:25.245Z,96414.78
2024-05-09T07:17:29.772Z,96418.47
2024-05-09T07:18:34.887Z,96414.56
2024-05-09T07:19:39.920Z,96411.94
2024-05-09T07:20:42.496Z,96421.13
2024-05-09T07:21:47.423Z,96422.00
2024-05-09T07:22:51.806Z,96426.84
2024-05-09T07:23:54.129Z,96415.16
2024-05-09T07:24:56.303Z,96421.47
2024-05-09T07:26:01.120Z,96424.66
2024-05-09T07:27:04.363Z,96421.69
2024-05-09T07:28:11.208Z,96425.31
2024-05-09T07:29:16.034Z,96421.78
2024-05-09T07:30:23.849Z,96418.69
2024-05-09T07:31:33.003Z,96417.16
2024-05-09T07:32:35.421Z,96426.63
2024-05-09T07:33:42.366Z,96417.25
2024-05-09T07:34:47.206Z,96419.25
2024-05-09T07:35:49.496Z,96413.41
2024-05-09T07:36:52.240Z,96414.63
2024-05-09T07:37:57.074Z,96412.63
2024-05-09T07:39:01.379Z,96415.81
2024-05-09T07:40:05.818Z,96411.09
2024-05-09T07:41:08.839Z,96417.38
2024-05-09T07:42:13.785Z,96411.88
2024-05-09T07:43:16.421Z,96409.09
2024-05-09T07:44:20.855Z,96420.91
2024-05-09T07:45:41.666Z,96412.31
2024-05-09T07:47:48.667Z,96418.72
2024-05-09T07:49:44.785Z,96416.06
2024-05-09T07:53:21.495Z,96417.25
2024-05-09T07:53:37.844Z,96416.81
2024-05-09T07:54:42.988Z,96409.88
2024-05-09T07:55:45.375Z,96416.03
2024-05-09T07:56:47.848Z,96418.56
2024-05-09T07:57:52.990Z,96414.94
2024-05-09T07:58:55.753Z,96410.09
2024-05-09T08:00:00.302Z,96410.09
2024-05-09T08:01:02.752Z,96411.28
2024-05-09T08:02:08.446Z,96403.66
2024-05-09T08:03:10.739Z,96414.16
2024-05-09T08:04:13.031Z,96414.94
2024-05-09T08:05:20.128Z,96412.50
2024-05-09T08:06:25.948Z,96411.63
2024-05-09T08:07:28.317Z,96410.28
2024-05-09T08:08:33.096Z,96415.22
2024-05-09T08:09:38.577Z,96420.66
2024-05-09T08:10:43.162Z,96417.31
2024-05-09T08:11:45.482Z,96411.56
2024-05-09T08:12:50.346Z,96412.97
2024-05-09T08:13:52.744Z,96409.66
2024-05-09T08:14:56.349Z,96419.84
2024-05-09T08:16:00.871Z,96414.00
2024-05-09T08:17:06.355Z,96410.47
2024-05-09T08:18:09.028Z,96417.53
2024-05-09T08:19:11.589Z,96413.53
2024-05-09T08:20:22.501Z,96411.41
2024-05-09T08:21:44.554Z,96418.19
2024-05-09T08:22:47.402Z,96410.22
2024-05-09T08:23:49.551Z,96406.88
2024-05-09T08:24:51.861Z,96409.31
2024-05-09T08:25:57.019Z,96409.31
2024-05-09T08:27:01.728Z,96415.03
2024-05-09T08:28:04.635Z,96408.41
2024-05-09T08:29:09.624Z,96408.94
2024-05-09T08:30:18.993Z,96415.25
2024-05-09T08:31:27.568Z,96411.75
2024-05-09T08:32:32.500Z,96411.31
2024-05-09T08:33:37.633Z,96405.78
2024-05-09T08:34:40.163Z,96411.41
2024-05-09T08:35:42.444Z,96408.66
2024-05-09T08:36:47.397Z,96413.53
2024-05-09T08:37:54.636Z,96405.03
2024-05-09T08:38:57.089Z,96404.50
2024-05-09T08:39:59.290Z,96409.03
2024-05-09T08:41:04.051Z,96403.59
2024-05-09T08:42:10.586Z,96407.88
2024-05-09T08:44:23.239Z,96410.22
2024-05-09T08:45:26.267Z,96403.78
2024-05-09T08:46:32.896Z,96405.31
2024-05-09T08:47:35.243Z,96392.72
2024-05-09T08:48:40.462Z,96397.25
2024-05-09T08:49:45.445Z,96403.41
2024-05-09T08:50:50.979Z,96397.22
2024-05-09T08:51:56.111Z,96396.75
2024-05-09T08:53:01.056Z,96394.66
2024-05-09T08:54:05.340Z,96393.13
2024-05-09T08:55:08.035Z,96401.50
2024-05-09T08:56:14.356Z,96397.88
2024-05-09T08:57:17.033Z,96403.84
2024-05-09T08:58:20.335Z,96399.50
2024-05-09T08:59:36.641Z,96403.19
2024-05-09T09:00:40.591Z,96395.63
2024-05-09T09:01:45.489Z,96388.88
2024-05-09T09:02:49.624Z,96391.19
2024-05-09T09:03:55.739Z,96389.91
2024-05-09T09:05:05.405Z,96388.22
2024-05-09T09:06:11.684Z,96395.31
2024-05-09T09:07:19.061Z,96390.28
2024-05-09T09:08:24.986Z,96392.16
2024-05-09T09:09:28.130Z,96383.88
2024-05-09T09:10:33.386Z,96380.34
2024-05-09T09:11:35.857Z,96391.41
2024-05-09T09:12:40.693Z,96388.88
2024-05-09T09:13:42.953Z,96388.19
2024-05-09T09:14:45.144Z,96397.56
2024-05-09T09:15:50.310Z,96386.31
2024-05-09T09:16:56.504Z,96384.50
2024-05-09T09:18:01.722Z,96390.03
2024-05-09T09:19:05.249Z,96394.03
2024-05-09T09:20:14.475Z,96387.59
2024-05-09T09:21:23.549Z,96386.06
2024-05-09T09:22:28.460Z,96379.00
2024-05-09T09:23:33.353Z,96389.28
2024-05-09T09:24:35.590Z,96393.13
2024-05-09T09:25:39.534Z,96387.59
2024-05-09T09:26:45.239Z,96396.22
2024-05-09T09:27:50.286Z,96390.69
2024-05-09T09:28:52.621Z,96389.13
2024-05-09T09:29:56.823Z,96394.81
2024-05-09T09:31:05.597Z,96391.19
2024-05-09T09:32:11.366Z,96383.34
2024-05-09T09:33:13.840Z,96400.69
2024-05-09T09:34:18.024Z,96393.97
2024-05-09T09:35:23.001Z,96392.72
2024-05-09T09:36:29.643Z,96392.16
2024-05-09T09:37:38.336Z,96392.63
2024-05-09T09:38:41.533Z,96404.44
2024-05-09T09:39:49.126Z,96399.78
2024-05-09T09:40:51.684Z,96396.16
2024-05-09T09:41:56.424Z,96394.16
2024-05-09T09:43:01.685Z,96396.47
2024-05-09T09:44:09.692Z,96397.25
2024-05-09T09:45:13.547Z,96396.00
2024-05-09T09:46:17.727Z,96402.88
2024-05-09T09:47:20.851Z,96394.84
2024-05-09T09:48:28.977Z,96405.31
2024-05-09T09:49:33.481Z,96400.44
2024-05-09T09:50:36.300Z,96405.97
2024-05-09T09:51:43.668Z,96405.97
2024-05-09T09:52:53.306Z,96393.38
2024-05-09T09:53:58.592Z,96398.00
2024-05-09T09:55:01.936Z,96393.38
2024-05-09T09:56:10.285Z,96403.09
2024-05-09T09:57:12.843Z,96400.19
2024-05-09T09:58:17.416Z,96406.50
2024-05-09T09:59:22.705Z,96404.63
2024-05-09T10:00:33.200Z,96406.75
2024-05-09T10:01:36.800Z,96409.38
2024-05-09T10:02:39.868Z,96404.44
2024-05-09T10:03:42.626Z,96410.94
2024-05-09T10:04:49.832Z,96407.53
2024-05-09T10:05:52.890Z,96405.97
2024-05-09T10:06:59.626Z,96412.16
2024-05-09T10:08:06.814Z,96402.66
2024-05-09T10:09:14.236Z,96407.53
2024-05-09T10:10:29.903Z,96405.66
2024-05-09T10:11:41.875Z,96405.66
2024-05-09T10:13:00.028Z,96415.34
2024-05-09T10:14:03.206Z,96409.38
2024-05-09T10:15:10.076Z,96401.75
2024-05-09T10:16:24.251Z,96396.34
2024-05-09T10:17:27.542Z,96400.34
2024-05-09T10:18:36.688Z,96397.44
2024-05-09T10:19:41.646Z,96399.31
2024-05-09T10:20:45.147Z,96399.91
2024-05-09T10:21:50.056Z,96405.59
2024-05-09T10:22:55.346Z,96403.59
2024-05-09T10:24:02.501Z,96396.41
2024-05-09T10:25:06.891Z,96399.63
2024-05-09T10:26:09.473Z,96399.16
2024-05-09T10:27:14.050Z,96398.41
2024-05-09T10:28:19.834Z,96399.16
2024-05-09T10:29:24.506Z,96395.66
2024-05-09T10:30:34.069Z,96396.22
2024-05-09T10:31:43.948Z,96398.09
2024-05-09T10:32:53.640Z,96400.09
2024-05-09T10:33:56.749Z,96395.66
2024-05-09T10:35:02.968Z,96395.97
2024-05-09T10:36:11.334Z,96395.84
2024-05-09T10:37:14.731Z,96407.47
2024-05-09T10:38:20.209Z,96402.25
2024-05-09T10:39:54.928Z,96397.81
2024-05-09T10:41:00.618Z,96395.31
2024-05-09T10:42:04.300Z,96392.88
2024-05-09T10:43:08.069Z,96397.50
2024-05-09T10:44:18.813Z,96389.53
2024-05-09T10:47:02.402Z,96388.75
2024-05-09T10:48:08.791Z,96385.56
2024-05-09T10:49:24.702Z,96388.00
2024-05-09T10:50:31.839Z,96387.25
2024-05-09T10:51:37.352Z,96385.56
2024-05-09T10:52:43.377Z,96388.59
2024-05-09T10:53:47.663Z,96398.41
2024-05-09T10:55:01.654Z,96384.72
2024-05-09T10:56:09.589Z,96382.59
2024-05-09T10:57:14.080Z,96392.56
2024-05-09T10:58:17.875Z,96381.97
2024-05-09T10:59:23.770Z,96384.91
2024-05-09T11:00:35.790Z,96381.72
2024-05-09T11:01:41.027Z,96378.47
2024-05-09T11:02:48.318Z,96378.63
2024-05-09T11:03:52.937Z,96382.78
2024-05-09T11:05:20.423Z,96376.94
2024-05-09T11:06:28.616Z,96387.56
2024-05-09T11:07:31.129Z,96383.13
2024-05-09T11:08:34.241Z,96377.59
2024-05-09T11:09:39.995Z,96384.00
2024-05-09T11:10:45.596Z,96382.31
2024-05-09T11:11:50.465Z,96380.69
2024-05-09T11:12:56.066Z,96378.22
2024-05-09T11:13:58.813Z,96386.22
2024-05-09T11:15:01.466Z,96386.44
2024-05-09T11:16:05.194Z,96382.16
2024-05-09T11:17:12.781Z,96382.47
2024-05-09T11:18:24.742Z,96387.84
2024-05-09T11:19:30.733Z,96374.81
2024-05-09T11:20:39.126Z,96378.34
2024-05-09T11:21:41.531Z,96378.34
2024-05-09T11:22:46.191Z,96382.22
2024-05-09T11:23:49.715Z,96375.91
2024-05-09T11:24:55.347Z,96377.59
2024-05-09T11:26:00.311Z,96379.81
2024-05-09T11:27:04.219Z,96376.81
2024-05-09T11:28:08.488Z,96381.88
2024-05-09T11:29:17.847Z,96376.69
2024-05-09T11:30:29.735Z,96381.25
2024-05-09T11:31:45.540Z,96382.22
2024-05-09T11:32:50.655Z,96387.63
2024-05-09T11:33:55.426Z,96386.06
2024-05-09T11:34:57.764Z,96380.88
2024-05-09T11:36:02.886Z,96386.72
2024-05-09T11:37:05.676Z,96379.50
2024-05-09T11:38:08.066Z,96387.47
2024-05-09T11:39:14.832Z,96378.69
2024-05-09T11:40:25.475Z,96381.94
2024-05-09T11:41:35.911Z,96382.09
2024-05-09T11:42:38.670Z,96375.50
2024-05-09T11:43:40.918Z,96380.59
2024-05-09T11:44:47.779Z,96378.59
2024-05-09T11:45:50.160Z,96375.84
2024-05-09T11:46:52.539Z,96373.97
2024-05-09T11:47:55.309Z,96378.59
2024-05-09T11:49:00.613Z,96380.81
2024-05-09T11:50:07.981Z,96376.03
2024-05-09T11:51:12.443Z,96375.28
2024-05-09T11:52:17.416Z,96376.47
2024-05-09T11:53:19.662Z,96375.28
2024-05-09T11:54:22.005Z,96382.34
2024-05-09T11:55:28.192Z,96373.06
2024-05-09T11:56:36.154Z,96373.72
2024-05-09T11:57:39.100Z,96371.28
2024-05-09T11:58:41.616Z,96376.81
2024-05-09T11:59:44.319Z,96368.94
2024-05-09T12:00:51.458Z,96365.63
2024-05-09T12:01:53.978Z,96367.59
2024-05-09T12:02:58.876Z,96375.13
2024-05-09T12:04:01.399Z,96374.09
2024-05-09T12:05:07.000Z,96366.22
2024-05-09T12:06:11.732Z,96368.56
2024-05-09T12:07:14.143Z,96367.03
2024-05-09T12:08:16.564Z,96372.25
2024-05-09T12:09:21.517Z,96360.09
2024-05-09T12:11:30.392Z,96363.34
2024-05-09T12:12:37.295Z,96364.59
2024-05-09T12:13:42.429Z,96363.41
2024-05-09T12:14:44.848Z,96361.72
2024-05-09T12:15:47.101Z,96366.81
2024-05-09T12:16:54.573Z,96358.50
2024-05-09T12:17:59.097Z,96358.81
2024-05-09T12:19:04.196Z,96360.03
2024-05-09T12:20:20.973Z,96361.59
2024-05-09T12:21:28.094Z,96355.16
2024-05-09T12:22:32.666Z,96353.59
2024-05-09T12:23:37.614Z,96354.22
2024-05-09T12:24:39.765Z,96355.47
2024-05-09T12:25:41.991Z,96352.69
2024-05-09T12:26:44.254Z,96350.38
2024-05-09T12:27:54.094Z,96357.31
2024-05-09T12:28:56.314Z,96347.81
2024-05-09T12:29:58.482Z,96353.34
2024-05-09T12:31:00.729Z,96347.47
2024-05-09T12:32:05.659Z,96353.59
2024-05-09T12:33:11.876Z,96353.59
2024-05-09T12:34:16.456Z,96351.94
2024-05-09T12:35:21.344Z,96355.78
2024-05-09T12:36:23.574Z,96349.47
2024-05-09T12:37:25.987Z,96353.34
2024-05-09T12:38:30.301Z,96348.56
2024-05-09T12:39:35.251Z,96355.63
2024-05-09T12:40:39.036Z,96361.31
2024-05-09T12:41:41.801Z,96353.47
2024-05-09T12:42:46.656Z,96352.44
2024-05-09T12:43:53.578Z,96339.94
2024-05-09T12:44:55.835Z,96344.16
2024-05-09T12:46:01.105Z,96342.91
2024-05-09T12:47:03.539Z,96346.00
2024-05-09T12:48:08.535Z,96346.00
2024-05-09T12:49:18.695Z,96343.53
2024-05-09T12:50:29.214Z,96341.53
2024-05-09T12:51:34.640Z,96342.00
2024-05-09T12:52:36.986Z,96342.34
2024-05-09T12:53:41.875Z,96342.63
2024-05-09T12:54:46.239Z,96344.19
2024-05-09T12:55:56.284Z,96333.41